sensor_id;sensor_type;location;lat;lon;timestamp;P1;durP1;ratioP1;P2;durP2;ratioP2
18308;SDS011;9280;50.276;18.650;2022-07-24T00:01:18;35.07;;;23.77;;
18308;SDS011;9280;50.276;18.650;2022-07-24T00:04:05;31.93;;;24.03;;
18308;SDS011;9280;50.276;18.650;2022-07-24T00:06:51;30.03;;;22.93;;
18308;SDS011;9280;50.276;18.650;2022-07-24T00:09:37;31.73;;;22.33;;
18308;SDS011;9280;50.276;18.650;2022-07-24T00:12:23;31.50;;;23.37;;
18308;SDS011;9280;50.276;18.650;2022-07-24T00:15:10;34.60;;;24.67;;
18308;SDS011;9280;50.276;18.650;2022-07-24T00:17:57;35.10;;;25.73;;
18308;SDS011;9280;50.276;18.650;2022-07-24T00:20:43;32.10;;;24.47;;
18308;SDS011;9280;50.276;18.650;2022-07-24T00:23:30;37.27;;;25.50;;
18308;SDS011;9280;50.276;18.650;2022-07-24T00:26:16;32.33;;;22.37;;
18308;SDS011;9280;50.276;18.650;2022-07-24T00:29:03;33.13;;;24.53;;
18308;SDS011;9280;50.276;18.650;2022-07-24T00:31:49;34.23;;;24.83;;
18308;SDS011;9280;50.276;18.650;2022-07-24T00:34:37;35.80;;;25.23;;
18308;SDS011;9280;50.276;18.650;2022-07-24T00:37:23;34.70;;;24.83;;
18308;SDS011;9280;50.276;18.650;2022-07-24T00:40:11;33.13;;;23.97;;
18308;SDS011;9280;50.276;18.650;2022-07-24T00:42:59;32.27;;;24.57;;
18308;SDS011;9280;50.276;18.650;2022-07-24T00:45:45;39.00;;;26.47;;
18308;SDS011;9280;50.276;18.650;2022-07-24T00:48:32;35.77;;;25.43;;
18308;SDS011;9280;50.276;18.650;2022-07-24T00:51:20;35.63;;;25.37;;
18308;SDS011;9280;50.276;18.650;2022-07-24T00:54:07;36.13;;;26.93;;
18308;SDS011;9280;50.276;18.650;2022-07-24T00:56:54;37.77;;;25.50;;
18308;SDS011;9280;50.276;18.650;2022-07-24T00:59:40;31.73;;;23.03;;
18308;SDS011;9280;50.276;18.650;2022-07-24T01:02:26;33.50;;;24.87;;
18308;SDS011;9280;50.276;18.650;2022-07-24T01:05:13;31.27;;;22.30;;
18308;SDS011;9280;50.276;18.650;2022-07-24T01:08:00;32.40;;;22.33;;
18308;SDS011;9280;50.276;18.650;2022-07-24T01:10:47;31.77;;;21.50;;
18308;SDS011;9280;50.276;18.650;2022-07-24T01:13:33;26.67;;;19.83;;
18308;SDS011;9280;50.276;18.650;2022-07-24T01:16:19;31.00;;;20.93;;
18308;SDS011;9280;50.276;18.650;2022-07-24T01:19:05;29.80;;;21.10;;
18308;SDS011;9280;50.276;18.650;2022-07-24T01:21:53;24.63;;;18.33;;
18308;SDS011;9280;50.276;18.650;2022-07-24T01:24:40;25.30;;;17.77;;
18308;SDS011;9280;50.276;18.650;2022-07-24T01:27:26;28.30;;;18.10;;
18308;SDS011;9280;50.276;18.650;2022-07-24T01:30:12;24.17;;;18.03;;
18308;SDS011;9280;50.276;18.650;2022-07-24T01:32:59;25.67;;;16.53;;
18308;SDS011;9280;50.276;18.650;2022-07-24T01:35:45;21.47;;;15.13;;
18308;SDS011;9280;50.276;18.650;2022-07-24T01:38:33;22.77;;;14.30;;
18308;SDS011;9280;50.276;18.650;2022-07-24T01:41:19;20.30;;;15.33;;
18308;SDS011;9280;50.276;18.650;2022-07-24T01:44:05;22.93;;;14.77;;
18308;SDS011;9280;50.276;18.650;2022-07-24T01:46:51;23.17;;;15.73;;
18308;SDS011;9280;50.276;18.650;2022-07-24T01:49:38;27.00;;;15.53;;
18308;SDS011;9280;50.276;18.650;2022-07-24T01:52:24;27.97;;;15.73;;
18308;SDS011;9280;50.276;18.650;2022-07-24T01:55:11;24.77;;;17.07;;
18308;SDS011;9280;50.276;18.650;2022-07-24T01:57:58;20.67;;;15.17;;
18308;SDS011;9280;50.276;18.650;2022-07-24T02:00:44;21.60;;;15.03;;
18308;SDS011;9280;50.276;18.650;2022-07-24T02:03:31;23.90;;;15.37;;
18308;SDS011;9280;50.276;18.650;2022-07-24T02:06:18;26.13;;;16.30;;
18308;SDS011;9280;50.276;18.650;2022-07-24T02:09:03;18.47;;;15.33;;
18308;SDS011;9280;50.276;18.650;2022-07-24T02:11:51;23.73;;;15.77;;
18308;SDS011;9280;50.276;18.650;2022-07-24T02:14:38;21.27;;;15.90;;
18308;SDS011;9280;50.276;18.650;2022-07-24T02:17:24;23.73;;;15.37;;
18308;SDS011;9280;50.276;18.650;2022-07-24T02:20:10;18.73;;;14.77;;
18308;SDS011;9280;50.276;18.650;2022-07-24T02:22:56;27.63;;;15.53;;
18308;SDS011;9280;50.276;18.650;2022-07-24T02:25:43;24.63;;;15.63;;
18308;SDS011;9280;50.276;18.650;2022-07-24T02:28:31;23.27;;;15.93;;
18308;SDS011;9280;50.276;18.650;2022-07-24T02:31:18;19.97;;;15.03;;
18308;SDS011;9280;50.276;18.650;2022-07-24T02:34:04;23.80;;;15.60;;
18308;SDS011;9280;50.276;18.650;2022-07-24T02:36:50;20.47;;;15.93;;
18308;SDS011;9280;50.276;18.650;2022-07-24T02:39:36;27.67;;;14.70;;
18308;SDS011;9280;50.276;18.650;2022-07-24T02:42:22;23.43;;;14.90;;
18308;SDS011;9280;50.276;18.650;2022-07-24T02:45:10;21.40;;;14.27;;
18308;SDS011;9280;50.276;18.650;2022-07-24T02:47:57;22.73;;;14.90;;
18308;SDS011;9280;50.276;18.650;2022-07-24T02:50:44;22.07;;;15.23;;
18308;SDS011;9280;50.276;18.650;2022-07-24T02:53:30;22.17;;;13.93;;
18308;SDS011;9280;50.276;18.650;2022-07-24T02:56:16;24.73;;;16.03;;
18308;SDS011;9280;50.276;18.650;2022-07-24T02:59:02;20.63;;;14.73;;
18308;SDS011;9280;50.276;18.650;2022-07-24T03:01:50;27.83;;;15.90;;
18308;SDS011;9280;50.276;18.650;2022-07-24T03:04:37;22.40;;;15.07;;
18308;SDS011;9280;50.276;18.650;2022-07-24T03:07:23;21.90;;;14.83;;
18308;SDS011;9280;50.276;18.650;2022-07-24T03:10:10;22.83;;;14.67;;
18308;SDS011;9280;50.276;18.650;2022-07-24T03:12:57;22.87;;;14.83;;
18308;SDS011;9280;50.276;18.650;2022-07-24T03:15:44;19.03;;;14.80;;
18308;SDS011;9280;50.276;18.650;2022-07-24T03:18:31;21.57;;;14.50;;
18308;SDS011;9280;50.276;18.650;2022-07-24T03:21:17;22.50;;;14.57;;
18308;SDS011;9280;50.276;18.650;2022-07-24T03:24:03;20.10;;;15.80;;
18308;SDS011;9280;50.276;18.650;2022-07-24T03:26:50;19.60;;;15.47;;
18308;SDS011;9280;50.276;18.650;2022-07-24T03:29:36;26.43;;;15.20;;
18308;SDS011;9280;50.276;18.650;2022-07-24T03:32:22;19.67;;;15.17;;
18308;SDS011;9280;50.276;18.650;2022-07-24T03:35:11;19.83;;;14.70;;
18308;SDS011;9280;50.276;18.650;2022-07-24T03:37:57;21.17;;;16.57;;
18308;SDS011;9280;50.276;18.650;2022-07-24T03:40:43;26.00;;;15.77;;
18308;SDS011;9280;50.276;18.650;2022-07-24T03:43:29;23.47;;;14.67;;
18308;SDS011;9280;50.276;18.650;2022-07-24T03:46:15;21.90;;;14.17;;
18308;SDS011;9280;50.276;18.650;2022-07-24T03:49:02;20.23;;;14.23;;
18308;SDS011;9280;50.276;18.650;2022-07-24T03:51:49;19.87;;;14.43;;
18308;SDS011;9280;50.276;18.650;2022-07-24T03:54:36;19.00;;;13.90;;
18308;SDS011;9280;50.276;18.650;2022-07-24T03:57:22;20.33;;;14.97;;
18308;SDS011;9280;50.276;18.650;2022-07-24T04:00:09;21.73;;;15.03;;
18308;SDS011;9280;50.276;18.650;2022-07-24T04:02:58;20.00;;;13.73;;
18308;SDS011;9280;50.276;18.650;2022-07-24T04:05:45;18.00;;;13.03;;
18308;SDS011;9280;50.276;18.650;2022-07-24T04:08:32;20.53;;;13.80;;
18308;SDS011;9280;50.276;18.650;2022-07-24T04:11:18;21.90;;;13.83;;
18308;SDS011;9280;50.276;18.650;2022-07-24T04:14:05;19.53;;;13.93;;
18308;SDS011;9280;50.276;18.650;2022-07-24T04:16:51;21.57;;;13.20;;
18308;SDS011;9280;50.276;18.650;2022-07-24T04:19:37;23.50;;;15.70;;
18308;SDS011;9280;50.276;18.650;2022-07-24T04:22:23;28.43;;;14.57;;
18308;SDS011;9280;50.276;18.650;2022-07-24T04:25:11;19.60;;;14.47;;
18308;SDS011;9280;50.276;18.650;2022-07-24T04:27:56;19.37;;;15.07;;
18308;SDS011;9280;50.276;18.650;2022-07-24T04:30:43;23.57;;;14.67;;
18308;SDS011;9280;50.276;18.650;2022-07-24T04:33:29;27.27;;;15.50;;
18308;SDS011;9280;50.276;18.650;2022-07-24T04:36:15;20.97;;;14.57;;
18308;SDS011;9280;50.276;18.650;2022-07-24T04:39:02;21.77;;;14.20;;
18308;SDS011;9280;50.276;18.650;2022-07-24T04:41:49;19.97;;;14.07;;
18308;SDS011;9280;50.276;18.650;2022-07-24T04:44:36;19.83;;;15.17;;
18308;SDS011;9280;50.276;18.650;2022-07-24T04:47:22;18.97;;;14.23;;
18308;SDS011;9280;50.276;18.650;2022-07-24T04:50:08;21.63;;;13.93;;
18308;SDS011;9280;50.276;18.650;2022-07-24T04:52:55;18.20;;;13.57;;
18308;SDS011;9280;50.276;18.650;2022-07-24T04:55:41;18.10;;;14.47;;
18308;SDS011;9280;50.276;18.650;2022-07-24T04:58:29;17.87;;;13.70;;
18308;SDS011;9280;50.276;18.650;2022-07-24T05:01:15;23.17;;;13.80;;
18308;SDS011;9280;50.276;18.650;2022-07-24T05:04:01;17.97;;;14.23;;
18308;SDS011;9280;50.276;18.650;2022-07-24T05:06:47;17.13;;;13.03;;
18308;SDS011;9280;50.276;18.650;2022-07-24T05:09:35;17.63;;;12.57;;
18308;SDS011;9280;50.276;18.650;2022-07-24T05:12:21;18.13;;;12.47;;
18308;SDS011;9280;50.276;18.650;2022-07-24T05:15:09;14.93;;;12.33;;
18308;SDS011;9280;50.276;18.650;2022-07-24T05:17:59;17.30;;;12.43;;
18308;SDS011;9280;50.276;18.650;2022-07-24T05:20:45;15.97;;;11.87;;
18308;SDS011;9280;50.276;18.650;2022-07-24T05:23:31;14.50;;;11.47;;
18308;SDS011;9280;50.276;18.650;2022-07-24T05:26:17;14.67;;;10.03;;
18308;SDS011;9280;50.276;18.650;2022-07-24T05:29:04;16.53;;;10.33;;
18308;SDS011;9280;50.276;18.650;2022-07-24T05:31:52;14.93;;;10.57;;
18308;SDS011;9280;50.276;18.650;2022-07-24T05:34:38;17.63;;;10.30;;
18308;SDS011;9280;50.276;18.650;2022-07-24T05:37:25;14.83;;;9.47;;
18308;SDS011;9280;50.276;18.650;2022-07-24T05:40:11;16.53;;;10.00;;
18308;SDS011;9280;50.276;18.650;2022-07-24T05:42:57;15.37;;;10.20;;
18308;SDS011;9280;50.276;18.650;2022-07-24T05:45:44;13.70;;;9.43;;
18308;SDS011;9280;50.276;18.650;2022-07-24T05:48:32;13.83;;;9.93;;
18308;SDS011;9280;50.276;18.650;2022-07-24T05:51:18;12.33;;;9.63;;
18308;SDS011;9280;50.276;18.650;2022-07-24T05:54:04;12.80;;;9.17;;
18308;SDS011;9280;50.276;18.650;2022-07-24T05:56:51;15.93;;;9.73;;
18308;SDS011;9280;50.276;18.650;2022-07-24T05:59:37;13.63;;;8.87;;
18308;SDS011;9280;50.276;18.650;2022-07-24T06:02:23;14.30;;;8.93;;
18308;SDS011;9280;50.276;18.650;2022-07-24T06:05:11;12.80;;;9.37;;
18308;SDS011;9280;50.276;18.650;2022-07-24T06:07:57;11.53;;;8.73;;
18308;SDS011;9280;50.276;18.650;2022-07-24T06:10:44;10.80;;;7.77;;
18308;SDS011;9280;50.276;18.650;2022-07-24T06:13:30;11.43;;;7.77;;
18308;SDS011;9280;50.276;18.650;2022-07-24T06:16:16;9.77;;;7.50;;
18308;SDS011;9280;50.276;18.650;2022-07-24T06:19:04;9.23;;;8.23;;
18308;SDS011;9280;50.276;18.650;2022-07-24T06:21:51;14.23;;;8.03;;
18308;SDS011;9280;50.276;18.650;2022-07-24T06:24:37;10.37;;;7.37;;
18308;SDS011;9280;50.276;18.650;2022-07-24T06:27:24;12.57;;;7.50;;
18308;SDS011;9280;50.276;18.650;2022-07-24T06:30:12;11.67;;;7.30;;
18308;SDS011;9280;50.276;18.650;2022-07-24T06:32:59;14.30;;;7.03;;
18308;SDS011;9280;50.276;18.650;2022-07-24T06:35:45;10.97;;;7.10;;
18308;SDS011;9280;50.276;18.650;2022-07-24T06:38:32;11.17;;;6.83;;
18308;SDS011;9280;50.276;18.650;2022-07-24T06:41:18;12.20;;;7.00;;
18308;SDS011;9280;50.276;18.650;2022-07-24T06:44:05;9.57;;;7.53;;
18308;SDS011;9280;50.276;18.650;2022-07-24T06:46:51;11.47;;;6.67;;
18308;SDS011;9280;50.276;18.650;2022-07-24T06:49:37;8.50;;;6.13;;
18308;SDS011;9280;50.276;18.650;2022-07-24T06:52:23;9.20;;;6.97;;
18308;SDS011;9280;50.276;18.650;2022-07-24T06:55:11;7.33;;;6.17;;
18308;SDS011;9280;50.276;18.650;2022-07-24T06:57:58;10.50;;;6.93;;
18308;SDS011;9280;50.276;18.650;2022-07-24T07:00:44;8.17;;;5.77;;
18308;SDS011;9280;50.276;18.650;2022-07-24T07:03:30;9.40;;;5.37;;
18308;SDS011;9280;50.276;18.650;2022-07-24T07:06:16;11.60;;;6.20;;
18308;SDS011;9280;50.276;18.650;2022-07-24T07:09:02;12.83;;;6.73;;
18308;SDS011;9280;50.276;18.650;2022-07-24T07:11:50;9.20;;;6.30;;
18308;SDS011;9280;50.276;18.650;2022-07-24T07:14:36;9.80;;;6.37;;
18308;SDS011;9280;50.276;18.650;2022-07-24T07:17:23;11.67;;;7.20;;
18308;SDS011;9280;50.276;18.650;2022-07-24T07:20:09;9.73;;;5.90;;
18308;SDS011;9280;50.276;18.650;2022-07-24T07:22:56;10.63;;;6.50;;
18308;SDS011;9280;50.276;18.650;2022-07-24T07:25:42;11.40;;;6.67;;
18308;SDS011;9280;50.276;18.650;2022-07-24T07:28:30;12.27;;;7.27;;
18308;SDS011;9280;50.276;18.650;2022-07-24T07:31:16;9.20;;;6.63;;
18308;SDS011;9280;50.276;18.650;2022-07-24T07:34:03;9.33;;;7.27;;
18308;SDS011;9280;50.276;18.650;2022-07-24T07:36:49;9.50;;;6.60;;
18308;SDS011;9280;50.276;18.650;2022-07-24T07:39:35;11.20;;;6.53;;
18308;SDS011;9280;50.276;18.650;2022-07-24T07:42:21;8.97;;;7.17;;
18308;SDS011;9280;50.276;18.650;2022-07-24T07:45:09;7.80;;;6.93;;
18308;SDS011;9280;50.276;18.650;2022-07-24T07:47:55;12.00;;;7.13;;
18308;SDS011;9280;50.276;18.650;2022-07-24T07:50:41;13.67;;;7.80;;
18308;SDS011;9280;50.276;18.650;2022-07-24T07:53:28;13.43;;;8.03;;
18308;SDS011;9280;50.276;18.650;2022-07-24T07:56:14;11.23;;;8.17;;
18308;SDS011;9280;50.276;18.650;2022-07-24T07:59:00;8.53;;;6.60;;
18308;SDS011;9280;50.276;18.650;2022-07-24T08:01:48;7.30;;;6.40;;
18308;SDS011;9280;50.276;18.650;2022-07-24T08:04:34;6.93;;;6.23;;
18308;SDS011;9280;50.276;18.650;2022-07-24T08:07:21;11.23;;;7.03;;
18308;SDS011;9280;50.276;18.650;2022-07-24T08:10:07;10.50;;;7.60;;
18308;SDS011;9280;50.276;18.650;2022-07-24T08:12:53;9.37;;;7.43;;
18308;SDS011;9280;50.276;18.650;2022-07-24T08:15:39;12.43;;;8.17;;
18308;SDS011;9280;50.276;18.650;2022-07-24T08:18:27;9.60;;;7.47;;
18308;SDS011;9280;50.276;18.650;2022-07-24T08:21:13;8.63;;;6.97;;
18308;SDS011;9280;50.276;18.650;2022-07-24T08:24:02;10.77;;;6.60;;
18308;SDS011;9280;50.276;18.650;2022-07-24T08:26:49;8.37;;;6.53;;
18308;SDS011;9280;50.276;18.650;2022-07-24T08:29:35;9.00;;;6.93;;
18308;SDS011;9280;50.276;18.650;2022-07-24T08:32:21;10.40;;;6.50;;
18308;SDS011;9280;50.276;18.650;2022-07-24T08:35:09;12.87;;;6.93;;
18308;SDS011;9280;50.276;18.650;2022-07-24T08:37:55;8.57;;;6.50;;
18308;SDS011;9280;50.276;18.650;2022-07-24T08:40:42;7.77;;;6.10;;
18308;SDS011;9280;50.276;18.650;2022-07-24T08:43:28;8.20;;;6.00;;
18308;SDS011;9280;50.276;18.650;2022-07-24T08:46:14;7.10;;;5.43;;
18308;SDS011;9280;50.276;18.650;2022-07-24T08:49:01;7.40;;;6.37;;
18308;SDS011;9280;50.276;18.650;2022-07-24T08:51:49;8.23;;;6.70;;
18308;SDS011;9280;50.276;18.650;2022-07-24T08:54:36;9.50;;;7.93;;
18308;SDS011;9280;50.276;18.650;2022-07-24T08:57:22;11.77;;;7.10;;
18308;SDS011;9280;50.276;18.650;2022-07-24T09:00:09;10.43;;;7.30;;
18308;SDS011;9280;50.276;18.650;2022-07-24T09:02:56;7.90;;;6.50;;
18308;SDS011;9280;50.276;18.650;2022-07-24T09:05:52;9.53;;;6.03;;
18308;SDS011;9280;50.276;18.650;2022-07-24T09:08:41;9.77;;;6.50;;
18308;SDS011;9280;50.276;18.650;2022-07-24T09:11:28;7.97;;;6.93;;
18308;SDS011;9280;50.276;18.650;2022-07-24T09:14:14;7.53;;;6.47;;
18308;SDS011;9280;50.276;18.650;2022-07-24T09:17:16;8.90;;;7.00;;
18308;SDS011;9280;50.276;18.650;2022-07-24T09:20:07;8.17;;;6.50;;
18308;SDS011;9280;50.276;18.650;2022-07-24T09:22:56;7.60;;;6.37;;
18308;SDS011;9280;50.276;18.650;2022-07-24T09:25:48;14.20;;;6.70;;
18308;SDS011;9280;50.276;18.650;2022-07-24T09:28:45;10.10;;;5.93;;
18308;SDS011;9280;50.276;18.650;2022-07-24T09:31:35;7.67;;;6.13;;
18308;SDS011;9280;50.276;18.650;2022-07-24T09:34:38;6.70;;;5.80;;
18308;SDS011;9280;50.276;18.650;2022-07-24T09:37:26;5.30;;;4.30;;
18308;SDS011;9280;50.276;18.650;2022-07-24T09:40:13;9.63;;;4.53;;
18308;SDS011;9280;50.276;18.650;2022-07-24T09:46:04;10.07;;;5.17;;
18308;SDS011;9280;50.276;18.650;2022-07-24T09:48:53;7.90;;;4.70;;
18308;SDS011;9280;50.276;18.650;2022-07-24T09:51:41;7.30;;;4.23;;
18308;SDS011;9280;50.276;18.650;2022-07-24T09:54:29;6.67;;;4.10;;
18308;SDS011;9280;50.276;18.650;2022-07-24T09:57:20;8.23;;;4.30;;
18308;SDS011;9280;50.276;18.650;2022-07-24T10:00:09;5.33;;;4.13;;
18308;SDS011;9280;50.276;18.650;2022-07-24T10:02:57;4.20;;;3.80;;
18308;SDS011;9280;50.276;18.650;2022-07-24T10:05:45;7.20;;;4.20;;
18308;SDS011;9280;50.276;18.650;2022-07-24T10:08:32;6.23;;;4.50;;
18308;SDS011;9280;50.276;18.650;2022-07-24T10:11:20;4.97;;;4.10;;
18308;SDS011;9280;50.276;18.650;2022-07-24T10:14:06;6.03;;;4.50;;
18308;SDS011;9280;50.276;18.650;2022-07-24T10:16:56;4.77;;;4.13;;
18308;SDS011;9280;50.276;18.650;2022-07-24T10:19:49;5.63;;;3.97;;
18308;SDS011;9280;50.276;18.650;2022-07-24T10:22:38;4.53;;;4.13;;
18308;SDS011;9280;50.276;18.650;2022-07-24T10:25:45;5.33;;;3.70;;
18308;SDS011;9280;50.276;18.650;2022-07-24T10:28:39;3.90;;;3.43;;
18308;SDS011;9280;50.276;18.650;2022-07-24T10:31:26;7.07;;;4.10;;
18308;SDS011;9280;50.276;18.650;2022-07-24T10:34:18;5.03;;;3.60;;
18308;SDS011;9280;50.276;18.650;2022-07-24T10:37:15;6.20;;;3.43;;
18308;SDS011;9280;50.276;18.650;2022-07-24T10:40:09;4.20;;;3.07;;
18308;SDS011;9280;50.276;18.650;2022-07-24T10:43:09;4.43;;;3.40;;
18308;SDS011;9280;50.276;18.650;2022-07-24T10:46:10;4.50;;;3.43;;
18308;SDS011;9280;50.276;18.650;2022-07-24T10:49:00;9.20;;;3.43;;
18308;SDS011;9280;50.276;18.650;2022-07-24T10:51:58;3.30;;;3.00;;
18308;SDS011;9280;50.276;18.650;2022-07-24T10:54:45;4.03;;;2.83;;
18308;SDS011;9280;50.276;18.650;2022-07-24T10:57:47;3.33;;;3.03;;
18308;SDS011;9280;50.276;18.650;2022-07-24T11:00:34;8.03;;;3.37;;
18308;SDS011;9280;50.276;18.650;2022-07-24T11:03:22;3.60;;;2.60;;
18308;SDS011;9280;50.276;18.650;2022-07-24T11:06:11;3.30;;;2.93;;
18308;SDS011;9280;50.276;18.650;2022-07-24T11:09:01;3.67;;;3.13;;
18308;SDS011;9280;50.276;18.650;2022-07-24T11:12:04;4.13;;;3.00;;
18308;SDS011;9280;50.276;18.650;2022-07-24T11:14:51;4.33;;;3.40;;
18308;SDS011;9280;50.276;18.650;2022-07-24T11:17:38;4.60;;;3.33;;
18308;SDS011;9280;50.276;18.650;2022-07-24T11:20:25;5.87;;;3.57;;
18308;SDS011;9280;50.276;18.650;2022-07-24T11:23:19;5.27;;;3.10;;
18308;SDS011;9280;50.276;18.650;2022-07-24T11:29:26;2.93;;;2.63;;
18308;SDS011;9280;50.276;18.650;2022-07-24T11:32:14;3.60;;;3.00;;
18308;SDS011;9280;50.276;18.650;2022-07-24T11:35:02;3.10;;;2.80;;
18308;SDS011;9280;50.276;18.650;2022-07-24T11:37:50;2.93;;;2.50;;
18308;SDS011;9280;50.276;18.650;2022-07-24T11:40:36;3.00;;;2.70;;
18308;SDS011;9280;50.276;18.650;2022-07-24T11:43:24;2.83;;;2.50;;
18308;SDS011;9280;50.276;18.650;2022-07-24T11:46:10;3.17;;;2.37;;
18308;SDS011;9280;50.276;18.650;2022-07-24T11:49:01;3.20;;;2.23;;
18308;SDS011;9280;50.276;18.650;2022-07-24T11:51:48;2.43;;;2.20;;
18308;SDS011;9280;50.276;18.650;2022-07-24T11:54:39;3.83;;;2.40;;
18308;SDS011;9280;50.276;18.650;2022-07-24T11:57:26;2.97;;;2.20;;
18308;SDS011;9280;50.276;18.650;2022-07-24T12:00:15;7.40;;;2.20;;
18308;SDS011;9280;50.276;18.650;2022-07-24T12:03:05;3.97;;;2.57;;
18308;SDS011;9280;50.276;18.650;2022-07-24T12:05:51;2.90;;;1.97;;
18308;SDS011;9280;50.276;18.650;2022-07-24T12:08:37;3.03;;;2.20;;
18308;SDS011;9280;50.276;18.650;2022-07-24T12:11:24;2.30;;;2.10;;
18308;SDS011;9280;50.276;18.650;2022-07-24T12:14:14;4.67;;;2.03;;
18308;SDS011;9280;50.276;18.650;2022-07-24T12:17:02;5.37;;;1.93;;
18308;SDS011;9280;50.276;18.650;2022-07-24T12:19:52;2.60;;;1.97;;
18308;SDS011;9280;50.276;18.650;2022-07-24T12:22:39;3.57;;;1.90;;
18308;SDS011;9280;50.276;18.650;2022-07-24T12:25:25;2.23;;;1.97;;
18308;SDS011;9280;50.276;18.650;2022-07-24T12:28:13;2.00;;;1.90;;
18308;SDS011;9280;50.276;18.650;2022-07-24T12:31:05;1.87;;;1.77;;
18308;SDS011;9280;50.276;18.650;2022-07-24T12:33:54;3.03;;;2.20;;
18308;SDS011;9280;50.276;18.650;2022-07-24T12:36:41;3.27;;;2.07;;
18308;SDS011;9280;50.276;18.650;2022-07-24T12:39:28;3.00;;;2.40;;
18308;SDS011;9280;50.276;18.650;2022-07-24T12:42:14;1.90;;;1.80;;
18308;SDS011;9280;50.276;18.650;2022-07-24T12:45:10;2.90;;;1.70;;
18308;SDS011;9280;50.276;18.650;2022-07-24T12:51:09;2.73;;;1.90;;
18308;SDS011;9280;50.276;18.650;2022-07-24T12:53:56;2.70;;;1.57;;
18308;SDS011;9280;50.276;18.650;2022-07-24T12:56:42;1.80;;;1.50;;
18308;SDS011;9280;50.276;18.650;2022-07-24T12:59:29;2.73;;;1.60;;
18308;SDS011;9280;50.276;18.650;2022-07-24T13:02:17;1.60;;;1.50;;
18308;SDS011;9280;50.276;18.650;2022-07-24T13:05:05;2.07;;;1.90;;
18308;SDS011;9280;50.276;18.650;2022-07-24T13:07:52;8.20;;;1.97;;
18308;SDS011;9280;50.276;18.650;2022-07-24T13:10:38;2.00;;;1.80;;
18308;SDS011;9280;50.276;18.650;2022-07-24T13:13:25;1.93;;;1.80;;
18308;SDS011;9280;50.276;18.650;2022-07-24T13:16:12;2.37;;;1.73;;
18308;SDS011;9280;50.276;18.650;2022-07-24T13:18:58;2.03;;;1.77;;
18308;SDS011;9280;50.276;18.650;2022-07-24T13:21:47;1.50;;;1.40;;
18308;SDS011;9280;50.276;18.650;2022-07-24T13:24:35;2.43;;;1.60;;
18308;SDS011;9280;50.276;18.650;2022-07-24T13:27:22;1.70;;;1.60;;
18308;SDS011;9280;50.276;18.650;2022-07-24T13:30:08;1.70;;;1.37;;
18308;SDS011;9280;50.276;18.650;2022-07-24T13:32:55;1.80;;;1.70;;
18308;SDS011;9280;50.276;18.650;2022-07-24T13:35:41;1.60;;;1.50;;
18308;SDS011;9280;50.276;18.650;2022-07-24T13:38:27;1.50;;;1.40;;
18308;SDS011;9280;50.276;18.650;2022-07-24T13:41:15;1.40;;;1.20;;
18308;SDS011;9280;50.276;18.650;2022-07-24T13:44:03;1.43;;;1.23;;
18308;SDS011;9280;50.276;18.650;2022-07-24T13:46:50;1.40;;;1.30;;
18308;SDS011;9280;50.276;18.650;2022-07-24T13:49:37;1.40;;;1.30;;
18308;SDS011;9280;50.276;18.650;2022-07-24T13:52:23;1.20;;;1.00;;
18308;SDS011;9280;50.276;18.650;2022-07-24T13:55:12;1.40;;;1.30;;
18308;SDS011;9280;50.276;18.650;2022-07-24T13:58:00;1.33;;;1.20;;
18308;SDS011;9280;50.276;18.650;2022-07-24T14:00:46;2.20;;;1.10;;
18308;SDS011;9280;50.276;18.650;2022-07-24T14:03:33;2.97;;;1.00;;
18308;SDS011;9280;50.276;18.650;2022-07-24T14:06:20;1.30;;;1.17;;
18308;SDS011;9280;50.276;18.650;2022-07-24T14:09:06;1.20;;;1.20;;
18308;SDS011;9280;50.276;18.650;2022-07-24T14:11:53;1.17;;;1.10;;
18308;SDS011;9280;50.276;18.650;2022-07-24T14:14:41;2.42;;;1.33;;
18308;SDS011;9280;50.276;18.650;2022-07-24T14:17:27;1.13;;;1.00;;
18308;SDS011;9280;50.276;18.650;2022-07-24T14:20:13;2.13;;;1.20;;
18308;SDS011;9280;50.276;18.650;2022-07-24T14:22:59;1.13;;;1.13;;
18308;SDS011;9280;50.276;18.650;2022-07-24T14:25:46;1.10;;;1.08;;
18308;SDS011;9280;50.276;18.650;2022-07-24T14:28:35;1.83;;;1.23;;
18308;SDS011;9280;50.276;18.650;2022-07-24T14:31:22;1.20;;;1.00;;
18308;SDS011;9280;50.276;18.650;2022-07-24T14:34:08;1.40;;;1.30;;
18308;SDS011;9280;50.276;18.650;2022-07-24T14:36:55;1.20;;;1.20;;
18308;SDS011;9280;50.276;18.650;2022-07-24T14:39:41;1.63;;;1.30;;
18308;SDS011;9280;50.276;18.650;2022-07-24T14:42:27;2.97;;;1.40;;
18308;SDS011;9280;50.276;18.650;2022-07-24T14:45:13;1.10;;;1.10;;
18308;SDS011;9280;50.276;18.650;2022-07-24T14:48:01;1.40;;;1.30;;
18308;SDS011;9280;50.276;18.650;2022-07-24T14:50:47;1.37;;;1.27;;
18308;SDS011;9280;50.276;18.650;2022-07-24T14:53:33;3.77;;;1.37;;
18308;SDS011;9280;50.276;18.650;2022-07-24T14:56:19;1.27;;;1.17;;
18308;SDS011;9280;50.276;18.650;2022-07-24T14:59:05;5.43;;;1.20;;
18308;SDS011;9280;50.276;18.650;2022-07-24T15:01:51;1.50;;;1.40;;
18308;SDS011;9280;50.276;18.650;2022-07-24T15:04:39;1.67;;;1.20;;
18308;SDS011;9280;50.276;18.650;2022-07-24T15:07:26;1.20;;;1.10;;
18308;SDS011;9280;50.276;18.650;2022-07-24T15:10:13;1.17;;;1.17;;
18308;SDS011;9280;50.276;18.650;2022-07-24T15:12:59;1.33;;;1.23;;
18308;SDS011;9280;50.276;18.650;2022-07-24T15:15:46;3.93;;;1.87;;
18308;SDS011;9280;50.276;18.650;2022-07-24T15:18:33;1.20;;;1.10;;
18308;SDS011;9280;50.276;18.650;2022-07-24T15:21:20;0.80;;;0.80;;
18308;SDS011;9280;50.276;18.650;2022-07-24T15:24:07;2.25;;;1.25;;
18308;SDS011;9280;50.276;18.650;2022-07-24T15:26:53;2.57;;;1.27;;
18308;SDS011;9280;50.276;18.650;2022-07-24T15:29:39;2.47;;;1.20;;
18308;SDS011;9280;50.276;18.650;2022-07-24T15:32:25;3.37;;;1.20;;
18308;SDS011;9280;50.276;18.650;2022-07-24T15:35:12;6.43;;;1.20;;
18308;SDS011;9280;50.276;18.650;2022-07-24T15:37:59;3.33;;;1.20;;
18308;SDS011;9280;50.276;18.650;2022-07-24T15:40:45;3.53;;;1.10;;
18308;SDS011;9280;50.276;18.650;2022-07-24T15:43:32;1.23;;;1.13;;
18308;SDS011;9280;50.276;18.650;2022-07-24T15:46:18;1.10;;;1.10;;
18308;SDS011;9280;50.276;18.650;2022-07-24T15:49:05;1.23;;;1.00;;
18308;SDS011;9280;50.276;18.650;2022-07-24T15:51:53;1.37;;;1.10;;
18308;SDS011;9280;50.276;18.650;2022-07-24T15:54:40;1.20;;;0.93;;
18308;SDS011;9280;50.276;18.650;2022-07-24T15:57:27;1.50;;;1.40;;
18308;SDS011;9280;50.276;18.650;2022-07-24T16:00:13;1.13;;;1.10;;
18308;SDS011;9280;50.276;18.650;2022-07-24T16:03:05;1.70;;;1.20;;
18308;SDS011;9280;50.276;18.650;2022-07-24T16:05:51;1.33;;;1.23;;
18308;SDS011;9280;50.276;18.650;2022-07-24T16:08:37;1.17;;;1.13;;
18308;SDS011;9280;50.276;18.650;2022-07-24T16:11:25;1.27;;;1.20;;
18308;SDS011;9280;50.276;18.650;2022-07-24T16:14:11;1.97;;;1.20;;
18308;SDS011;9280;50.276;18.650;2022-07-24T16:16:57;1.33;;;1.23;;
18308;SDS011;9280;50.276;18.650;2022-07-24T16:19:44;1.33;;;1.13;;
18308;SDS011;9280;50.276;18.650;2022-07-24T16:22:30;1.20;;;1.10;;
18308;SDS011;9280;50.276;18.650;2022-07-24T16:25:16;2.23;;;1.50;;
18308;SDS011;9280;50.276;18.650;2022-07-24T16:28:04;2.70;;;1.40;;
18308;SDS011;9280;50.276;18.650;2022-07-24T16:30:50;1.33;;;1.30;;
18308;SDS011;9280;50.276;18.650;2022-07-24T16:33:36;1.50;;;1.40;;
18308;SDS011;9280;50.276;18.650;2022-07-24T16:36:23;2.13;;;1.40;;
18308;SDS011;9280;50.276;18.650;2022-07-24T16:39:09;1.50;;;1.20;;
18308;SDS011;9280;50.276;18.650;2022-07-24T16:41:55;1.73;;;1.30;;
18308;SDS011;9280;50.276;18.650;2022-07-24T16:44:42;5.00;;;1.13;;